Time;durP1;ratioP1;P1;durP2;ratioP2;P2;SDS_P1;SDS_P2;PMS_P1;PMS_P2;Temp;Humidity;BMP_temperature;BMP_pressure;BME280_temperature;BME280_humidity;BME280_pressure;Samples;Min_cycle;Max_cycle;Signal;HPM_P1;HPM_P2
2022/09/03 00:01:49;;;;;;;7.47;1.70;;;17.70;71.70;;;;;;5044053;28;20041;-73
2022/09/03 00:04:58;;;;;;;4.30;2.30;;;17.60;71.60;;;;;;5037792;28;20038;-74
2022/09/03 00:08:02;;;;;;;7.20;2.13;;;17.60;71.50;;;;;;5007611;28;20029;-74
2022/09/03 00:10:40;;;;;;;3.35;1.17;;;17.60;71.60;;;;;;5046100;28;20406;-74
2022/09/03 00:13:09;;;;;;;5.80;1.20;;;17.60;71.70;;;;;;5032630;28;20033;-73
2022/09/03 00:15:38;;;;;;;7.88;2.65;;;17.60;71.70;;;;;;5035630;28;20034;-75
2022/09/03 00:18:12;;;;;;;5.22;1.23;;;17.60;71.80;;;;;;5040012;28;20149;-73
2022/09/03 00:20:52;;;;;;;5.45;1.65;;;17.60;71.80;;;;;;5039321;28;20488;-75
2022/09/03 00:23:24;;;;;;;10.10;2.88;;;17.60;71.90;;;;;;5036722;28;20038;-74
2022/09/03 00:26:03;;;;;;;7.95;2.47;;;17.60;71.90;;;;;;5037526;28;20048;-73
2022/09/03 00:28:40;;;;;;;8.43;1.85;;;17.60;71.80;;;;;;5033862;28;20385;-75
2022/09/03 00:31:07;;;;;;;3.80;1.67;;;17.60;72.00;;;;;;5029965;28;20026;-73
2022/09/03 00:33:34;;;;;;;10.93;6.22;;;17.60;71.80;;;;;;5044340;28;20017;-73
2022/09/03 00:36:14;;;;;;;20.40;8.65;;;17.60;72.20;;;;;;5035858;28;20049;-75
2022/09/03 00:38:40;;;;;;;9.13;4.43;;;17.60;72.80;;;;;;5033498;28;20030;-70
2022/09/03 00:41:36;;;;;;;13.65;3.53;;;17.60;72.90;;;;;;5036320;28;20129;-76
2022/09/03 00:44:15;;;;;;;18.17;2.17;;;17.60;72.90;;;;;;5041797;28;20550;-76
2022/09/03 00:47:26;;;;;;;11.93;3.40;;;17.50;73.40;;;;;;5035928;28;20088;-73
2022/09/03 00:49:53;;;;;;;5.53;2.40;;;17.60;73.70;;;;;;5004918;28;20593;-71
2022/09/03 00:52:36;;;;;;;6.45;1.45;;;17.60;74.00;;;;;;5008284;28;20080;-72
2022/09/03 00:55:19;;;;;;;15.48;3.08;;;17.60;73.30;;;;;;5020778;28;20546;-74
2022/09/03 00:58:01;;;;;;;9.35;1.98;;;17.60;72.80;;;;;;5039077;28;20025;-74
2022/09/03 01:00:28;;;;;;;8.75;2.92;;;17.60;72.80;;;;;;5034439;28;20024;-73
2022/09/03 01:03:07;;;;;;;6.13;1.38;;;17.50;72.80;;;;;;5038708;28;20033;-73
2022/09/03 01:05:49;;;;;;;5.95;1.58;;;17.50;72.80;;;;;;5037483;28;20025;-74
2022/09/03 01:08:31;;;;;;;6.30;1.45;;;17.50;72.70;;;;;;5035650;28;20029;-72
2022/09/03 01:11:29;;;;;;;4.15;1.40;;;17.50;72.40;;;;;;5036226;28;20440;-73
2022/09/03 01:14:30;;;;;;;5.68;1.73;;;17.50;72.60;;;;;;5017463;28;20399;-73
2022/09/03 01:17:15;;;;;;;4.75;1.98;;;17.40;72.30;;;;;;5033686;28;20406;-74
2022/09/03 01:20:29;;;;;;;9.55;1.95;;;17.40;72.30;;;;;;5030056;28;20037;-74
2022/09/03 01:23:34;;;;;;;4.13;1.00;;;17.40;72.60;;;;;;5035682;28;20047;-75
2022/09/03 01:26:50;;;;;;;18.00;2.25;;;17.40;72.60;;;;;;5033765;28;20641;-74
2022/09/03 01:29:47;;;;;;;8.68;3.53;;;17.40;73.10;;;;;;5029015;28;20112;-74
2022/09/03 01:32:36;;;;;;;11.27;5.78;;;17.40;73.80;;;;;;5027828;28;20033;-73
2022/09/03 01:35:11;;;;;;;10.63;3.55;;;17.40;74.20;;;;;;5032100;28;20515;-74
2022/09/03 01:37:51;;;;;;;19.75;3.95;;;17.50;74.50;;;;;;5036964;28;20108;-70
2022/09/03 01:40:53;;;;;;;6.10;2.33;;;17.50;74.70;;;;;;5025860;28;20037;-76
2022/09/03 01:43:22;;;;;;;11.40;1.70;;;17.50;74.80;;;;;;5028183;28;20176;-72
2022/09/03 01:45:52;;;;;;;9.90;2.92;;;17.50;74.30;;;;;;5029978;28;20033;-73
2022/09/03 01:48:30;;;;;;;10.07;1.67;;;17.50;73.60;;;;;;5035424;28;20021;-73
2022/09/03 01:51:03;;;;;;;6.45;2.53;;;17.40;74.20;;;;;;5030414;28;20017;-70
2022/09/03 01:54:03;;;;;;;9.88;2.15;;;17.40;73.80;;;;;;5034535;28;20033;-72
2022/09/03 01:56:39;;;;;;;5.28;1.55;;;17.40;73.20;;;;;;5032968;28;20095;-73
2022/09/03 01:59:27;;;;;;;7.10;2.58;;;17.40;72.50;;;;;;5033326;28;20041;-74
2022/09/03 02:02:18;;;;;;;5.28;2.00;;;17.40;72.40;;;;;;5035038;28;20033;-73
2022/09/03 02:05:08;;;;;;;2.90;1.45;;;17.40;72.20;;;;;;5058706;28;20025;-75
2022/09/03 02:07:45;;;;;;;7.15;1.33;;;17.30;72.20;;;;;;5030887;28;20030;-73
2022/09/03 02:10:19;;;;;;;9.13;1.40;;;17.30;72.30;;;;;;5030897;28;20053;-70
2022/09/03 02:12:51;;;;;;;6.95;1.58;;;17.30;72.60;;;;;;5035698;28;20384;-75
2022/09/03 02:15:20;;;;;;;5.63;1.20;;;17.30;72.50;;;;;;5033746;28;20030;-74
2022/09/03 02:17:51;;;;;;;4.32;1.30;;;17.30;72.30;;;;;;5035557;28;20025;-74
2022/09/03 02:20:25;;;;;;;3.63;1.23;;;17.30;72.20;;;;;;5036442;28;20552;-73
2022/09/03 02:22:53;;;;;;;14.93;3.55;;;17.30;72.00;;;;;;5036406;28;20040;-73
2022/09/03 02:25:22;;;;;;;14.70;8.52;;;17.30;72.20;;;;;;5028690;28;20018;-75
2022/09/03 02:27:50;;;;;;;14.40;7.22;;;17.30;72.30;;;;;;5030273;28;20378;-75
2022/09/03 02:30:17;;;;;;;11.40;4.95;;;17.30;72.40;;;;;;5033133;28;20111;-75
2022/09/03 02:32:43;;;;;;;9.32;2.55;;;17.30;73.10;;;;;;5038607;28;20542;-74
2022/09/03 02:35:11;;;;;;;6.13;1.50;;;17.30;73.60;;;;;;5032711;28;20129;-75
2022/09/03 02:37:38;;;;;;;7.57;1.73;;;17.30;73.70;;;;;;5033893;28;20120;-74
2022/09/03 02:40:08;;;;;;;10.07;1.67;;;17.30;73.60;;;;;;5029008;28;20027;-73
2022/09/03 02:42:35;;;;;;;10.60;1.85;;;17.20;73.10;;;;;;5028888;28;20041;-74
2022/09/03 02:45:45;;;;;;;8.65;2.63;;;17.20;73.00;;;;;;5039396;28;20021;-75
2022/09/03 02:48:13;;;;;;;8.95;2.35;;;17.20;73.30;;;;;;5030766;28;20026;-75
2022/09/03 02:50:42;;;;;;;10.43;1.60;;;17.20;73.90;;;;;;5032466;28;20090;-75
2022/09/03 02:53:09;;;;;;;6.90;1.50;;;17.20;73.60;;;;;;5028553;28;20030;-75
2022/09/03 02:55:35;;;;;;;10.75;2.53;;;17.20;73.30;;;;;;5034207;28;20017;-73
2022/09/03 02:58:04;;;;;;;21.05;8.55;;;17.20;74.00;;;;;;5024520;28;20030;-73
2022/09/03 03:00:32;;;;;;;20.05;11.02;;;17.20;74.40;;;;;;5032568;28;20034;-73
2022/09/03 03:02:58;;;;;;;16.35;6.55;;;17.20;75.00;;;;;;5032949;28;20032;-74
2022/09/03 03:05:35;;;;;;;12.60;4.30;;;17.20;74.70;;;;;;5029001;28;20550;-70
2022/09/03 03:08:02;;;;;;;6.95;3.05;;;17.20;73.80;;;;;;5024935;28;20032;-76
2022/09/03 03:10:28;;;;;;;6.28;2.13;;;17.20;73.60;;;;;;5031065;28;20080;-73
2022/09/03 03:12:55;;;;;;;5.85;1.85;;;17.20;73.40;;;;;;5029962;28;20079;-73
2022/09/03 03:15:21;;;;;;;11.23;2.03;;;17.20;73.20;;;;;;5029074;28;20025;-74
2022/09/03 03:17:48;;;;;;;8.82;1.30;;;17.20;73.10;;;;;;5028345;28;20052;-75
2022/09/03 03:20:14;;;;;;;7.35;2.13;;;17.20;73.50;;;;;;5037678;28;20033;-74
2022/09/03 03:22:41;;;;;;;10.23;2.38;;;17.10;73.70;;;;;;5031112;28;20052;-74
2022/09/03 03:25:08;;;;;;;4.50;1.63;;;17.20;73.80;;;;;;5035101;28;20025;-74
2022/09/03 03:27:40;;;;;;;5.40;1.50;;;17.10;74.00;;;;;;5032886;28;20439;-74
2022/09/03 03:30:09;;;;;;;7.32;1.77;;;17.20;74.70;;;;;;5027694;28;20026;-75
2022/09/03 03:32:36;;;;;;;4.93;1.33;;;17.10;73.80;;;;;;5033261;28;20029;-72
2022/09/03 03:35:04;;;;;;;17.50;3.28;;;17.10;73.60;;;;;;5028869;28;20028;-74
2022/09/03 03:37:31;;;;;;;16.33;6.72;;;17.10;73.40;;;;;;5033343;28;20657;-74
2022/09/03 03:39:58;;;;;;;16.30;7.22;;;17.10;74.60;;;;;;5033340;28;20115;-71
2022/09/03 03:42:25;;;;;;;11.30;3.92;;;17.10;74.20;;;;;;5029455;28;20116;-73
2022/09/03 03:44:51;;;;;;;8.30;3.38;;;17.10;73.70;;;;;;5035657;28;20044;-73
2022/09/03 03:47:18;;;;;;;7.28;2.08;;;17.00;73.30;;;;;;5030535;28;20049;-75
2022/09/03 03:49:44;;;;;;;5.70;1.65;;;17.00;73.10;;;;;;5030742;28;20025;-75
2022/09/03 03:52:11;;;;;;;4.18;1.38;;;17.00;73.10;;;;;;5028772;28;20048;-76
2022/09/03 03:54:37;;;;;;;7.45;1.52;;;17.00;73.00;;;;;;5032562;28;20021;-77
2022/09/03 03:57:03;;;;;;;5.43;1.75;;;17.00;73.30;;;;;;5026834;28;20080;-71
2022/09/03 03:59:30;;;;;;;6.90;2.28;;;17.00;73.80;;;;;;5033495;28;20154;-76
2022/09/03 04:01:56;;;;;;;5.07;2.42;;;17.00;73.80;;;;;;5028066;28;20399;-75
2022/09/03 04:04:23;;;;;;;41.53;25.88;;;17.00;73.50;;;;;;5031053;28;20033;-76
2022/09/03 04:06:49;;;;;;;49.55;32.63;;;17.00;73.30;;;;;;5027991;28;20121;-75
2022/09/03 04:09:16;;;;;;;35.75;15.10;;;17.00;73.50;;;;;;5032543;28;20079;-75
2022/09/03 04:11:42;;;;;;;13.23;7.95;;;17.00;73.50;;;;;;5033336;28;20037;-75
2022/09/03 04:14:09;;;;;;;10.75;4.53;;;16.90;73.60;;;;;;5034095;28;20014;-75
2022/09/03 04:16:35;;;;;;;10.95;3.00;;;16.90;73.50;;;;;;5027242;28;20082;-74
2022/09/03 04:19:02;;;;;;;8.80;2.22;;;16.90;73.50;;;;;;5028937;28;20029;-73
2022/09/03 04:21:30;;;;;;;10.32;2.35;;;16.90;73.60;;;;;;5040545;28;20044;-74
2022/09/03 04:23:57;;;;;;;8.98;2.65;;;16.90;73.50;;;;;;5027891;28;20079;-74
2022/09/03 04:26:30;;;;;;;5.95;1.85;;;16.90;73.60;;;;;;5024479;28;20022;-77
2022/09/03 04:28:58;;;;;;;7.05;2.22;;;16.90;73.50;;;;;;5025106;28;20595;-70
2022/09/03 04:31:25;;;;;;;4.75;1.55;;;16.80;73.40;;;;;;5031782;28;20029;-70
2022/09/03 04:33:53;;;;;;;6.95;1.95;;;16.80;73.30;;;;;;5032604;28;20041;-70
2022/09/03 04:36:25;;;;;;;39.17;27.35;;;16.80;73.20;;;;;;5033946;28;20046;-73
2022/09/03 04:38:53;;;;;;;35.60;23.00;;;16.80;73.60;;;;;;5035448;28;20035;-72
2022/09/03 04:41:23;;;;;;;18.02;12.25;;;16.80;73.80;;;;;;5031814;28;20040;-75
2022/09/03 04:43:54;;;;;;;13.32;4.82;;;16.80;74.00;;;;;;5027115;28;20477;-72
2022/09/03 04:46:24;;;;;;;9.18;3.38;;;16.80;74.60;;;;;;5032627;28;20446;-73
2022/09/03 04:48:53;;;;;;;20.58;13.80;;;16.80;74.80;;;;;;5033373;28;20024;-74
2022/09/03 04:51:27;;;;;;;17.50;10.85;;;16.80;75.00;;;;;;5035925;28;20127;-76
2022/09/03 04:53:57;;;;;;;13.10;7.22;;;16.70;74.90;;;;;;5033390;28;20044;-76
2022/09/03 04:56:28;;;;;;;14.52;4.60;;;16.70;74.90;;;;;;5036986;28;20025;-74
2022/09/03 04:58:58;;;;;;;11.73;3.33;;;16.70;74.70;;;;;;5033748;28;20047;-72
2022/09/03 05:01:26;;;;;;;8.30;3.00;;;16.70;74.80;;;;;;5036021;28;20120;-78
2022/09/03 05:03:54;;;;;;;8.88;1.63;;;16.80;74.70;;;;;;5025521;28;20033;-73
2022/09/03 05:06:21;;;;;;;9.02;1.70;;;16.70;74.60;;;;;;5026854;28;20033;-74
2022/09/03 05:08:49;;;;;;;8.35;1.83;;;16.70;74.30;;;;;;5034921;28;20391;-73
2022/09/03 05:11:16;;;;;;;9.30;1.95;;;16.70;74.30;;;;;;5029151;28;20029;-72
2022/09/03 05:13:43;;;;;;;9.02;1.98;;;16.70;74.40;;;;;;5034283;28;20033;-73
2022/09/03 05:16:12;;;;;;;8.52;2.83;;;16.70;74.40;;;;;;5031815;28;20029;-74
2022/09/03 05:18:38;;;;;;;11.40;1.92;;;16.70;74.60;;;;;;5033719;28;20048;-73
2022/09/03 05:21:07;;;;;;;11.05;2.85;;;16.70;74.60;;;;;;5031977;28;20120;-72
2022/09/03 05:23:42;;;;;;;7.40;1.33;;;16.70;74.40;;;;;;5032047;28;20040;-69
2022/09/03 05:26:12;;;;;;;8.10;1.65;;;16.70;74.40;;;;;;5041717;28;20037;-72
2022/09/03 05:28:41;;;;;;;9.13;2.33;;;16.70;74.40;;;;;;5030089;28;20396;-73
2022/09/03 05:31:10;;;;;;;7.53;1.70;;;16.70;74.50;;;;;;5031180;28;20064;-74
2022/09/03 05:33:51;;;;;;;8.30;1.77;;;16.70;74.60;;;;;;5035276;28;20113;-74
2022/09/03 05:36:22;;;;;;;5.90;1.90;;;16.70;74.50;;;;;;5039233;28;20051;-74
2022/09/03 05:38:49;;;;;;;6.97;2.28;;;16.70;74.40;;;;;;5030975;28;20040;-72
2022/09/03 05:41:17;;;;;;;8.05;1.80;;;16.70;74.50;;;;;;5027946;28;20492;-70
2022/09/03 05:43:44;;;;;;;8.98;2.75;;;16.70;74.50;;;;;;5033151;28;20022;-73
2022/09/03 05:46:14;;;;;;;7.05;1.50;;;16.70;74.50;;;;;;5033616;28;20116;-70
2022/09/03 05:48:41;;;;;;;9.65;2.40;;;16.70;74.70;;;;;;5034303;28;20480;-73
2022/09/03 05:51:10;;;;;;;10.88;1.70;;;16.80;75.30;;;;;;5031145;28;20039;-72
2022/09/03 05:53:39;;;;;;;5.32;1.73;;;16.70;75.80;;;;;;5030952;28;20370;-71
2022/09/03 05:56:12;;;;;;;15.00;2.28;;;16.80;76.00;;;;;;5037610;28;20500;-75
2022/09/03 05:58:43;;;;;;;8.77;1.92;;;16.80;76.00;;;;;;5031617;28;20063;-72
2022/09/03 06:01:17;;;;;;;15.05;6.55;;;16.80;76.00;;;;;;5032305;28;20037;-76
2022/09/03 06:03:45;;;;;;;28.63;15.75;;;16.80;76.00;;;;;;5034560;28;20032;-74
2022/09/03 06:06:15;;;;;;;15.80;9.48;;;16.80;76.00;;;;;;5029831;28;20030;-76
2022/09/03 06:08:43;;;;;;;11.15;5.75;;;16.80;76.10;;;;;;5038233;28;20558;-75
2022/09/03 06:11:11;;;;;;;7.05;3.28;;;16.80;76.80;;;;;;5029702;28;20442;-78
2022/09/03 06:13:38;;;;;;;10.32;3.22;;;16.80;76.30;;;;;;5037239;28;20029;-76
2022/09/03 06:16:06;;;;;;;13.55;2.50;;;16.80;76.40;;;;;;5028816;28;20024;-77
2022/09/03 06:18:33;;;;;;;7.72;2.78;;;16.80;77.00;;;;;;5033801;28;20026;-73
2022/09/03 06:21:41;;;;;;;13.32;2.55;;;16.80;76.30;;;;;;5036216;28;20034;-73
2022/09/03 06:24:15;;;;;;;19.00;2.42;;;16.90;77.10;;;;;;5030848;28;20049;-73
2022/09/03 06:26:41;;;;;;;10.57;1.92;;;16.90;78.00;;;;;;5037230;28;20029;-72
2022/09/03 06:29:08;;;;;;;17.88;2.65;;;16.80;78.00;;;;;;5026890;28;20018;-72
2022/09/03 06:31:38;;;;;;;7.18;1.88;;;16.90;78.00;;;;;;5036289;28;20044;-72
2022/09/03 06:34:04;;;;;;;5.72;1.80;;;16.90;78.50;;;;;;5031304;28;20496;-72
2022/09/03 06:36:32;;;;;;;7.53;1.90;;;16.90;77.70;;;;;;5033318;28;20045;-72
2022/09/03 06:38:58;;;;;;;17.85;5.53;;;16.90;77.50;;;;;;5030333;28;20531;-73
2022/09/03 06:41:34;;;;;;;5.35;2.13;;;16.90;77.40;;;;;;5034494;28;20040;-73
2022/09/03 06:44:40;;;;;;;8.93;1.85;;;17.00;77.20;;;;;;5035559;28;20466;-69
2022/09/03 06:47:06;;;;;;;;;;;17.00;77.30;;;;;;5032665;28;20376;-73
2022/09/03 06:50:12;;;;;;;8.70;1.83;;;17.00;77.80;;;;;;5034057;28;20006;-73
2022/09/03 06:53:18;;;;;;;6.50;1.50;;;17.00;76.80;;;;;;5028050;28;20678;-74
2022/09/03 06:56:27;;;;;;;10.77;1.40;;;17.00;76.50;;;;;;5030253;28;20033;-71
2022/09/03 06:58:59;;;;;;;6.15;2.08;;;17.10;76.20;;;;;;5029688;28;20079;-72
2022/09/03 07:01:31;;;;;;;6.45;2.15;;;17.10;75.90;;;;;;5033680;28;20036;-72
2022/09/03 07:04:00;;;;;;;7.25;2.80;;;17.10;75.60;;;;;;5030672;28;20068;-73
2022/09/03 07:06:30;;;;;;;7.03;2.40;;;17.10;75.40;;;;;;5036628;28;20032;-71
2022/09/03 07:08:58;;;;;;;9.48;1.45;;;17.10;75.20;;;;;;5030496;28;20024;-73
2022/09/03 07:11:28;;;;;;;5.15;1.70;;;17.10;75.10;;;;;;5028725;28;20029;-72
2022/09/03 07:13:55;;;;;;;10.02;2.00;;;17.10;74.80;;;;;;5029112;28;20033;-72
2022/09/03 07:16:24;;;;;;;5.35;2.38;;;17.10;74.60;;;;;;5032368;28;20025;-72
2022/09/03 07:18:51;;;;;;;12.25;2.88;;;17.10;74.50;;;;;;5031040;28;20037;-72
2022/09/03 07:21:22;;;;;;;8.43;2.20;;;17.20;74.60;;;;;;5029102;28;20033;-73
2022/09/03 07:23:51;;;;;;;6.78;2.00;;;17.20;74.60;;;;;;5032564;28;20025;-72
2022/09/03 07:26:23;;;;;;;9.50;1.88;;;17.20;74.40;;;;;;5037574;28;20017;-71
2022/09/03 07:28:50;;;;;;;6.05;1.67;;;17.20;75.00;;;;;;5030694;28;20813;-71
2022/09/03 07:31:21;;;;;;;15.55;2.72;;;17.20;75.00;;;;;;5030251;28;20025;-72
2022/09/03 07:33:47;;;;;;;8.20;1.90;;;17.20;75.60;;;;;;5032478;28;20048;-73
2022/09/03 07:36:16;;;;;;;5.35;1.63;;;17.20;76.60;;;;;;5033009;28;20053;-70
2022/09/03 07:38:44;;;;;;;92.40;82.20;;;17.20;76.60;;;;;;5028659;28;20489;-72
2022/09/03 07:41:12;;;;;;;60.75;48.17;;;17.20;76.90;;;;;;5026662;28;20033;-70
2022/09/03 07:43:45;;;;;;;29.25;21.02;;;17.20;77.00;;;;;;5029810;28;20036;-72
2022/09/03 07:46:22;;;;;;;17.00;9.80;;;17.20;77.60;;;;;;5026942;28;20044;-71
2022/09/03 07:48:54;;;;;;;10.25;4.78;;;17.10;77.80;;;;;;5035411;28;20040;-71
2022/09/03 07:51:25;;;;;;;8.48;3.10;;;17.20;78.20;;;;;;5022638;28;20034;-69
2022/09/03 07:54:02;;;;;;;7.82;2.63;;;17.10;78.30;;;;;;5026053;28;20029;-70
2022/09/03 07:56:33;;;;;;;5.57;1.98;;;17.10;78.60;;;;;;5030970;28;20029;-70
2022/09/03 07:59:00;;;;;;;6.95;2.28;;;17.10;79.10;;;;;;5033916;28;20492;-71
2022/09/03 08:01:30;;;;;;;20.70;7.55;;;17.10;79.90;;;;;;5029020;28;20021;-72
2022/09/03 08:03:56;;;;;;;18.58;5.63;;;17.20;80.00;;;;;;5027471;28;20025;-71
2022/09/03 08:06:27;;;;;;;14.40;5.40;;;17.10;79.80;;;;;;5032038;28;20025;-72
2022/09/03 08:08:58;;;;;;;9.25;3.40;;;17.10;80.00;;;;;;5030772;28;20033;-71
2022/09/03 08:11:27;;;;;;;15.10;4.40;;;17.10;80.00;;;;;;5031631;28;20029;-69
2022/09/03 08:14:05;;;;;;;13.52;3.70;;;17.10;80.30;;;;;;5035437;28;20017;-71
2022/09/03 08:16:55;;;;;;;9.07;2.78;;;17.10;80.50;;;;;;5032635;28;20025;-71
2022/09/03 08:19:22;;;;;;;12.48;2.53;;;17.10;80.60;;;;;;5035272;28;20512;-69
2022/09/03 08:21:48;;;;;;;5.05;1.60;;;17.10;80.80;;;;;;5037706;28;20531;-72
2022/09/03 08:24:16;;;;;;;6.35;2.13;;;17.10;81.40;;;;;;5039011;28;20025;-71
2022/09/03 08:26:43;;;;;;;6.45;2.20;;;17.10;81.70;;;;;;5039928;28;20025;-71
2022/09/03 08:29:09;;;;;;;6.03;2.03;;;17.20;82.70;;;;;;5036264;28;20072;-71
2022/09/03 08:31:36;;;;;;;10.65;1.80;;;17.10;81.90;;;;;;5036067;28;20480;-71
2022/09/03 08:34:05;;;;;;;6.35;2.08;;;17.10;81.90;;;;;;5027975;28;20420;-69
2022/09/03 08:36:37;;;;;;;7.65;2.70;;;17.20;82.20;;;;;;5039821;28;20049;-70
2022/09/03 08:39:09;;;;;;;8.32;2.03;;;17.20;82.50;;;;;;5035879;28;20048;-70
2022/09/03 08:41:57;;;;;;;10.48;2.00;;;17.20;82.80;;;;;;5033607;28;20048;-68
2022/09/03 08:44:46;;;;;;;10.05;1.85;;;17.20;83.30;;;;;;5038524;28;20124;-71
2022/09/03 08:47:38;;;;;;;10.32;2.22;;;17.20;84.00;;;;;;5034431;28;20076;-68
2022/09/03 08:50:23;;;;;;;7.82;1.60;;;17.20;84.30;;;;;;5035696;28;20030;-69
2022/09/03 08:53:16;;;;;;;11.60;1.50;;;17.30;84.60;;;;;;5038399;28;20025;-72
2022/09/03 08:55:57;;;;;;;8.18;1.35;;;17.20;84.60;;;;;;5035682;28;20586;-69
2022/09/03 08:58:30;;;;;;;4.40;1.25;;;17.30;84.60;;;;;;5035952;28;20037;-68
2022/09/03 09:01:10;;;;;;;4.35;1.27;;;17.30;84.70;;;;;;5032548;28;20094;-69
2022/09/03 09:03:54;;;;;;;13.95;1.98;;;17.30;84.70;;;;;;5037839;28;20479;-68
2022/09/03 09:06:41;;;;;;;6.93;1.50;;;17.30;84.70;;;;;;5037116;28;20117;-69
2022/09/03 09:09:11;;;;;;;6.95;1.40;;;17.40;84.80;;;;;;5036902;28;20389;-69
2022/09/03 09:12:03;;;;;;;5.55;1.95;;;17.40;84.90;;;;;;5037492;28;20416;-68
2022/09/03 09:14:48;;;;;;;4.10;1.17;;;17.40;84.90;;;;;;5032489;28;20068;-68
2022/09/03 09:17:26;;;;;;;4.35;1.15;;;17.40;85.10;;;;;;5034557;28;20026;-69
2022/09/03 09:20:17;;;;;;;2.70;1.27;;;17.50;85.20;;;;;;5033043;28;20385;-68
2022/09/03 09:23:13;;;;;;;3.22;1.40;;;17.50;85.30;;;;;;5034338;28;20044;-69
2022/09/03 09:25:51;;;;;;;3.50;1.35;;;17.50;85.20;;;;;;5037454;28;20565;-68
2022/09/03 09:28:21;;;;;;;7.32;1.70;;;17.50;85.30;;;;;;5028987;28;20492;-70
2022/09/03 09:30:50;;;;;;;9.07;1.70;;;17.60;85.30;;;;;;5033962;28;20025;-68
2022/09/03 09:33:19;;;;;;;6.47;1.45;;;17.60;85.00;;;;;;5039854;28;20030;-66
2022/09/03 09:35:46;;;;;;;4.25;1.15;;;17.60;84.50;;;;;;5036877;28;20076;-67
2022/09/03 09:38:13;;;;;;;4.75;1.20;;;17.60;84.30;;;;;;5037543;28;20040;-66
2022/09/03 09:40:42;;;;;;;5.03;1.42;;;17.50;84.00;;;;;;5036228;28;20444;-67
2022/09/03 09:43:19;;;;;;;12.57;1.60;;;17.50;83.90;;;;;;5031714;28;20107;-68
2022/09/03 09:45:51;;;;;;;5.63;1.70;;;17.50;84.10;;;;;;5036517;28;20033;-67
2022/09/03 09:48:25;;;;;;;5.35;1.15;;;17.50;84.00;;;;;;5038914;28;20075;-67
2022/09/03 09:51:08;;;;;;;5.45;1.48;;;17.60;83.90;;;;;;5031982;28;20061;-68
2022/09/03 09:53:35;;;;;;;7.88;1.80;;;17.60;82.50;;;;;;5034954;28;20048;-67
2022/09/03 09:56:02;;;;;;;4.47;2.00;;;17.60;81.90;;;;;;5032469;28;20104;-68
2022/09/03 09:58:31;;;;;;;10.10;2.97;;;17.60;82.40;;;;;;5040823;28;20028;-67
2022/09/03 10:01:17;;;;;;;9.23;4.65;;;17.60;83.00;;;;;;5030568;28;20507;-68
2022/09/03 10:03:55;;;;;;;6.78;2.90;;;17.50;83.60;;;;;;5034856;28;20026;-67
2022/09/03 10:09:17;;;;;;;9.45;3.00;;;17.50;84.10;;;;;;5030631;28;20032;-68
2022/09/03 10:11:50;;;;;;;8.20;2.15;;;17.50;84.20;;;;;;5038325;28;20033;-69
2022/09/03 10:14:25;;;;;;;5.72;2.38;;;17.40;84.50;;;;;;5026208;28;20485;-70
2022/09/03 10:17:00;;;;;;;6.20;2.05;;;17.40;84.80;;;;;;5037670;28;20071;-67
2022/09/03 10:20:26;;;;;;;6.60;2.33;;;17.40;85.00;;;;;;5037684;28;20020;-68
2022/09/03 10:22:45;;;;;;;10.00;2.13;;;17.40;85.20;;;;;;5031451;28;20566;-70
2022/09/03 10:25:15;;;;;;;10.20;2.38;;;17.50;84.90;;;;;;5035551;28;20061;-70
2022/09/03 10:27:45;;;;;;;9.40;2.17;;;17.50;84.50;;;;;;5030885;28;20380;-70
2022/09/03 10:30:14;;;;;;;8.48;1.92;;;17.60;84.80;;;;;;5033606;28;20025;-70
2022/09/03 10:33:07;;;;;;;8.27;1.65;;;17.60;84.40;;;;;;5033600;28;20028;-70
2022/09/03 10:35:46;;;;;;;10.27;3.40;;;17.60;82.70;;;;;;5028750;28;20037;-69
2022/09/03 10:38:33;;;;;;;4.78;1.75;;;17.60;82.30;;;;;;5030817;28;20519;-70
2022/09/03 10:41:28;;;;;;;6.05;1.35;;;17.70;81.60;;;;;;5031656;28;20042;-71
2022/09/03 10:44:34;;;;;;;5.68;2.03;;;17.90;81.40;;;;;;5032342;28;20025;-70
2022/09/03 10:47:34;;;;;;;9.43;2.95;;;18.00;80.10;;;;;;5032504;28;20041;-69
2022/09/03 10:50:22;;;;;;;10.98;2.47;;;18.10;78.90;;;;;;5025434;28;20040;-69
2022/09/03 10:53:17;;;;;;;8.48;2.90;;;18.10;78.40;;;;;;5037176;28;20056;-69
2022/09/03 10:56:11;;;;;;;6.95;1.38;;;18.20;78.30;;;;;;5029656;28;20040;-70
2022/09/03 10:58:43;;;;;;;5.38;1.88;;;18.20;77.80;;;;;;5034734;28;20032;-69
2022/09/03 11:01:31;;;;;;;3.35;0.95;;;18.30;77.20;;;;;;5026430;28;20045;-69
2022/09/03 11:04:16;;;;;;;6.03;1.60;;;18.40;77.10;;;;;;5031771;28;20029;-70
2022/09/03 11:07:07;;;;;;;3.67;1.53;;;18.60;76.80;;;;;;5030526;28;20112;-70
2022/09/03 11:09:57;;;;;;;9.93;2.05;;;18.80;75.50;;;;;;5036378;28;20555;-69
2022/09/03 11:12:30;;;;;;;5.35;1.05;;;19.00;74.00;;;;;;5029093;28;20397;-69
2022/09/03 11:15:09;;;;;;;3.75;1.08;;;19.10;72.60;;;;;;5030994;28;20386;-70
2022/09/03 11:17:59;;;;;;;5.45;1.10;;;19.20;70.90;;;;;;5030643;28;20033;-69
2022/09/03 11:20:26;;;;;;;3.90;0.98;;;19.30;70.00;;;;;;5034882;28;20033;-70
2022/09/03 11:23:04;;;;;;;5.50;2.35;;;19.50;69.80;;;;;;5029671;28;20065;-69
2022/09/03 11:25:35;;;;;;;6.20;1.25;;;19.60;69.10;;;;;;5039380;28;20063;-72
2022/09/03 11:28:32;;;;;;;7.32;1.60;;;19.80;68.90;;;;;;5027350;28;20101;-69
2022/09/03 11:31:12;;;;;;;3.15;0.90;;;20.00;68.80;;;;;;5032782;28;20026;-71
2022/09/03 11:33:54;;;;;;;2.35;0.80;;;20.10;65.10;;;;;;5039043;28;20029;-71
2022/09/03 11:36:33;;;;;;;3.83;2.25;;;20.20;63.70;;;;;;5024029;28;20038;-70
2022/09/03 11:39:01;;;;;;;9.05;1.77;;;20.30;63.80;;;;;;5031965;28;20433;-70
2022/09/03 11:41:34;;;;;;;7.43;1.10;;;20.50;63.80;;;;;;5033203;28;20045;-72
2022/09/03 11:44:18;;;;;;;4.88;0.80;;;20.60;62.90;;;;;;5029602;28;20029;-70
2022/09/03 11:47:20;;;;;;;4.20;1.27;;;20.60;61.70;;;;;;5032982;28;20049;-70
2022/09/03 11:49:52;;;;;;;1.52;1.25;;;20.70;61.40;;;;;;5027276;28;20032;-70
2022/09/03 11:52:39;;;;;;;3.65;0.80;;;20.70;61.60;;;;;;5065750;28;20025;-71
2022/09/03 11:55:06;;;;;;;1.27;0.80;;;20.80;61.10;;;;;;5032365;28;20044;-71
2022/09/03 11:57:42;;;;;;;4.03;0.80;;;20.80;60.00;;;;;;5033770;28;20080;-70
2022/09/03 12:00:13;;;;;;;10.82;2.25;;;20.90;59.80;;;;;;5031181;28;20047;-71
2022/09/03 12:02:50;;;;;;;2.35;0.73;;;20.90;59.90;;;;;;5034045;28;20086;-70
2022/09/03 12:05:24;;;;;;;1.65;1.45;;;21.00;59.70;;;;;;5027756;28;20104;-70
2022/09/03 12:08:21;;;;;;;6.47;0.93;;;21.10;60.20;;;;;;5033307;28;20034;-70
2022/09/03 12:11:29;;;;;;;3.78;0.95;;;21.10;59.90;;;;;;5031562;28;20021;-70
2022/09/03 12:14:20;;;;;;;3.88;0.88;;;21.10;59.10;;;;;;5029391;28;20065;-68
2022/09/03 12:17:30;;;;;;;9.63;0.95;;;21.10;59.60;;;;;;5035258;28;20104;-71
2022/09/03 12:19:58;;;;;;;6.57;1.40;;;21.20;60.00;;;;;;5001904;28;20036;-71
2022/09/03 12:22:27;;;;;;;2.72;0.73;;;21.20;59.60;;;;;;5025621;28;20054;-71
2022/09/03 12:24:55;;;;;;;2.83;1.02;;;21.30;59.10;;;;;;5032307;28;20017;-70
2022/09/03 12:27:26;;;;;;;8.80;2.83;;;21.30;59.40;;;;;;5029596;28;20131;-70
2022/09/03 12:29:59;;;;;;;5.28;0.95;;;21.30;59.80;;;;;;5032571;28;20071;-69
2022/09/03 12:32:31;;;;;;;2.20;0.90;;;21.30;60.30;;;;;;5034198;28;20432;-70
2022/09/03 12:35:08;;;;;;;5.80;1.23;;;21.30;60.90;;;;;;5028386;28;20393;-71
2022/09/03 12:37:36;;;;;;;5.10;0.93;;;21.30;60.60;;;;;;5026310;28;20044;-69
2022/09/03 12:40:03;;;;;;;5.25;2.80;;;21.40;60.40;;;;;;5027944;28;20384;-69
2022/09/03 12:43:09;;;;;;;1.65;0.63;;;21.40;60.50;;;;;;5033839;28;20273;-69
2022/09/03 12:46:15;;;;;;;6.05;1.02;;;21.40;61.00;;;;;;5034206;28;20511;-72
2022/09/03 12:48:56;;;;;;;5.88;1.10;;;21.40;59.60;;;;;;5028104;28;20029;-71
2022/09/03 12:51:23;;;;;;;6.60;1.17;;;21.30;58.90;;;;;;5026188;28;20022;-73
2022/09/03 12:53:50;;;;;;;3.83;1.08;;;21.30;59.50;;;;;;5027180;28;20515;-72
2022/09/03 12:56:18;;;;;;;4.18;1.13;;;21.30;59.90;;;;;;5029873;28;20077;-73
2022/09/03 12:58:57;;;;;;;3.78;0.77;;;21.30;58.70;;;;;;5024532;28;20444;-69
2022/09/03 13:01:30;;;;;;;7.28;1.50;;;21.20;59.00;;;;;;5030216;28;20076;-72
2022/09/03 13:04:13;;;;;;;4.22;1.23;;;21.10;59.40;;;;;;5027701;28;20029;-73
2022/09/03 13:07:10;;;;;;;2.25;1.00;;;21.10;59.90;;;;;;5029326;28;20387;-72
2022/09/03 13:09:39;;;;;;;5.88;0.95;;;21.10;60.40;;;;;;5029063;28;20108;-73
2022/09/03 13:12:06;;;;;;;4.10;1.20;;;21.10;60.80;;;;;;5031592;28;20020;-74
2022/09/03 13:14:47;;;;;;;4.97;2.20;;;21.10;61.00;;;;;;5031093;28;20530;-71
2022/09/03 13:17:25;;;;;;;7.13;1.70;;;21.00;61.40;;;;;;5032955;28;20030;-71
2022/09/03 13:20:19;;;;;;;4.45;2.50;;;21.10;61.80;;;;;;5027281;28;20018;-71
2022/09/03 13:23:17;;;;;;;5.38;1.92;;;21.00;61.70;;;;;;5034210;28;20040;-72
2022/09/03 13:26:15;;;;;;;5.10;2.03;;;20.90;61.80;;;;;;5032539;28;20025;-73
2022/09/03 13:29:49;;;;;;;3.45;1.30;;;20.90;62.40;;;;;;5038229;28;20021;-72
2022/09/03 13:32:21;;;;;;;3.65;1.83;;;20.80;62.50;;;;;;4969044;28;20027;-72